Terminal Aerodrome Forecast
Issued by NWS Grand Forks, ND

Home | Current Version | Previous Version | Graphics & Text | Print | Product List | Glossary On
Versions: 1 2 3 4 5 6 7 8 9 10 11 12 13 14
529
FTUS43 KFGF 162340
TAFFAR
TAF
KFAR 162340Z 1700/1724 27004KT P6SM FEW250
     FM170700 29005KT 6SM BR FEW150
     FM171400 23004KT P6SM FEW110
     FM171700 20008KT P6SM FEW110
     FM172200 18012KT P6SM SCT080=

USA.gov is the U.S. government's official web portal to all federal, state and local government web resources and services.